createdAt,value
2019-03-20T01:31:59.337Z,0.00
2019-03-20T01:32:59.325Z,0.00
2019-03-20T01:33:59.323Z,0.00
2019-03-20T07:03:42.200Z,9348.00
2019-03-20T07:14:15.215Z,5364.00
2019-03-20T07:15:15.209Z,3380.00
2019-03-20T07:16:15.199Z,2924.00
2019-03-20T07:17:15.193Z,2624.00
2019-03-20T07:18:15.185Z,2688.00
2019-03-20T07:19:15.178Z,2784.00
2019-03-20T07:20:15.168Z,3396.00
2019-03-20T07:21:15.162Z,3684.00
2019-03-20T07:22:15.154Z,4108.00
2019-03-20T07:23:15.147Z,4772.00
2019-03-20T07:24:15.136Z,5128.00
2019-03-20T07:25:15.132Z,5644.00
2019-03-20T07:26:15.123Z,5884.00
2019-03-20T07:27:15.117Z,5568.00
2019-03-20T07:28:15.107Z,5424.00
2019-03-20T07:29:15.101Z,5428.00
2019-03-20T07:30:15.094Z,5404.00
2019-03-20T07:31:16.000Z,5460.00
2019-03-20T07:32:15.076Z,5464.00
2019-03-20T07:33:15.071Z,5528.00
2019-03-20T07:34:15.065Z,5748.00
2019-03-20T07:35:15.058Z,5804.00
2019-03-20T07:36:15.047Z,5616.00
2019-03-20T07:37:15.041Z,5844.00
2019-03-20T07:38:15.032Z,6164.00
2019-03-20T07:39:15.027Z,6080.00
2019-03-20T07:40:15.020Z,5880.00
2019-03-20T07:41:15.012Z,6236.00
2019-03-20T07:42:15.002Z,6800.00
2019-03-20T07:43:14.999Z,5896.00
2019-03-20T07:44:14.988Z,5604.00
2019-03-20T07:45:14.983Z,5104.00
2019-03-20T07:46:14.974Z,5048.00
2019-03-20T07:47:14.969Z,4788.00
2019-03-20T07:48:21.947Z,5036.00
2019-03-20T07:49:14.955Z,5004.00
2019-03-20T07:50:14.946Z,4788.00
2019-03-20T07:51:14.943Z,4580.00
2019-03-20T07:52:14.931Z,4552.00
2019-03-20T07:53:14.926Z,4528.00
2019-03-20T07:54:14.918Z,4428.00
2019-03-20T07:55:15.114Z,4244.00
2019-03-20T07:56:14.904Z,3996.00
2019-03-20T07:57:14.903Z,3576.00
2019-03-20T07:58:14.901Z,3408.00
2019-03-20T07:59:14.889Z,3556.00
2019-03-20T08:00:14.878Z,4660.00
2019-03-20T08:01:14.870Z,5184.00
2019-03-20T08:02:14.864Z,5672.00
2019-03-20T08:03:14.863Z,6204.00
2019-03-20T08:04:14.852Z,5820.00
2019-03-20T08:05:14.858Z,6416.00
2019-03-20T08:06:14.834Z,6908.00
2019-03-20T08:07:14.829Z,6688.00
2019-03-20T08:08:14.820Z,6116.00
2019-03-20T08:09:14.846Z,5152.00
2019-03-20T08:10:14.805Z,4580.00
2019-03-20T08:11:14.802Z,4132.00
2019-03-20T08:12:14.791Z,3896.00
2019-03-20T08:13:14.790Z,3824.00
2019-03-20T08:14:14.786Z,3900.00
2019-03-20T08:15:14.792Z,4088.00
2019-03-20T08:16:14.765Z,4164.00
2019-03-20T08:17:14.763Z,5152.00
2019-03-20T08:18:14.754Z,4172.00
2019-03-20T08:19:14.747Z,4264.00
2019-03-20T08:20:14.738Z,4244.00
2019-03-20T08:21:14.734Z,3996.00
2019-03-20T08:22:14.725Z,3792.00
2019-03-20T08:23:14.720Z,3568.00
2019-03-20T08:24:14.726Z,3496.00
2019-03-20T08:25:14.706Z,3580.00
2019-03-20T08:26:14.697Z,3740.00
2019-03-20T08:27:14.694Z,3996.00
2019-03-20T08:28:14.685Z,4264.00
2019-03-20T08:29:14.681Z,4384.00
2019-03-20T08:30:14.672Z,4560.00
2019-03-20T08:31:14.668Z,4692.00
2019-03-20T08:32:14.659Z,4816.00
2019-03-20T08:33:14.654Z,4936.00
2019-03-20T08:34:14.649Z,5144.00
2019-03-20T08:35:14.642Z,5356.00
2019-03-20T08:36:14.634Z,5676.00
2019-03-20T08:37:14.636Z,5712.00
2019-03-20T08:38:18.497Z,5680.00
2019-03-20T08:39:14.615Z,6420.00
2019-03-20T08:40:14.606Z,6064.00
2019-03-20T08:41:14.603Z,6104.00
2019-03-20T08:42:14.595Z,5668.00
2019-03-20T08:43:14.593Z,5124.00
2019-03-20T08:44:14.581Z,4820.00
2019-03-20T08:45:14.580Z,4376.00
2019-03-20T08:46:14.571Z,4032.00
2019-03-20T08:47:14.569Z,3784.00
2019-03-20T08:48:14.558Z,3428.00
2019-03-20T08:49:14.598Z,3204.00
2019-03-20T08:50:14.546Z,3140.00
2019-03-20T08:51:14.544Z,3156.00
2019-03-20T08:52:14.535Z,3208.00
2019-03-20T08:53:14.531Z,3192.00
2019-03-20T08:54:14.524Z,3196.00
2019-03-20T08:55:14.520Z,3264.00
2019-03-20T08:56:14.515Z,3368.00
2019-03-20T08:57:14.513Z,3464.00
2019-03-20T08:58:14.503Z,3564.00
2019-03-20T08:59:14.496Z,3656.00
2019-03-20T09:00:14.487Z,3768.00
2019-03-20T09:01:14.496Z,3840.00
2019-03-20T09:02:14.477Z,3756.00
2019-03-20T09:03:14.474Z,3592.00
2019-03-20T09:04:14.465Z,3436.00
2019-03-20T09:05:14.463Z,3300.00
2019-03-20T09:06:14.553Z,3196.00
2019-03-20T09:07:14.450Z,3164.00
2019-03-20T09:08:14.443Z,3144.00
2019-03-20T09:09:14.438Z,3100.00
2019-03-20T09:10:14.429Z,3092.00
2019-03-20T09:11:14.426Z,3144.00
2019-03-20T09:12:14.417Z,3124.00
2019-03-20T09:13:14.415Z,3052.00
2019-03-20T09:14:14.406Z,3012.00
2019-03-20T09:16:36.882Z,3120.00
2019-03-20T09:17:36.880Z,3128.00
2019-03-20T09:18:36.870Z,3212.00
2019-03-20T09:19:36.868Z,3236.00
2019-03-20T09:20:36.862Z,3304.00
2019-03-20T09:21:36.853Z,3360.00
2019-03-20T09:22:36.845Z,3460.00
2019-03-20T09:23:36.927Z,3600.00
2019-03-20T09:24:36.836Z,3744.00
2019-03-20T09:25:36.839Z,3912.00
2019-03-20T09:26:36.820Z,4116.00
2019-03-20T09:27:36.817Z,4212.00
2019-03-20T09:28:36.809Z,4400.00
2019-03-20T09:29:36.805Z,4528.00
2019-03-20T09:30:36.802Z,4588.00
2019-03-20T09:31:36.798Z,4612.00
2019-03-20T09:32:36.785Z,4668.00
2019-03-20T09:33:36.781Z,4716.00
2019-03-20T09:34:36.773Z,4692.00
2019-03-20T09:35:36.770Z,4748.00
2019-03-20T09:36:43.105Z,4788.00
2019-03-20T09:37:36.758Z,4852.00
2019-03-20T09:38:43.437Z,4852.00
2019-03-20T09:39:36.748Z,4892.00
2019-03-20T09:40:36.739Z,4996.00
2019-03-20T09:41:37.036Z,5052.00
2019-03-20T09:42:36.728Z,5132.00
2019-03-20T09:43:36.725Z,5164.00
2019-03-20T09:44:36.717Z,5256.00
2019-03-20T09:45:36.713Z,5364.00
2019-03-20T09:46:36.706Z,5408.00
2019-03-20T09:47:36.729Z,5368.00
2019-03-20T09:48:36.698Z,5420.00
2019-03-20T09:49:36.691Z,5448.00
2019-03-20T09:50:36.684Z,5608.00
2019-03-20T09:51:36.682Z,5652.00
2019-03-20T09:52:36.674Z,5708.00
2019-03-20T09:53:36.670Z,5768.00
2019-03-20T09:54:36.663Z,5824.00
2019-03-20T09:55:36.663Z,5820.00
2019-03-20T09:56:36.655Z,5912.00
2019-03-20T09:57:36.650Z,5904.00
2019-03-20T09:58:36.643Z,5980.00
2019-03-20T09:59:36.639Z,6108.00
2019-03-20T10:00:36.634Z,6144.00
2019-03-20T10:19:31.779Z,5572.00
2019-03-20T10:20:31.780Z,5512.00
2019-03-20T10:21:31.770Z,5440.00
2019-03-20T10:22:31.768Z,5328.00
2019-03-20T10:23:31.761Z,5292.00
2019-03-20T10:24:31.760Z,5248.00
2019-03-20T10:25:31.752Z,5236.00
2019-03-20T10:26:31.751Z,5336.00
2019-03-20T10:27:31.744Z,5348.00
2019-03-20T10:28:31.743Z,5668.00
2019-03-20T10:29:31.734Z,5872.00
2019-03-20T10:30:31.732Z,5912.00
2019-03-20T10:31:31.726Z,5856.00
2019-03-20T10:32:31.723Z,5632.00
2019-03-20T10:33:31.722Z,5408.00
2019-03-20T10:34:39.201Z,5152.00
2019-03-20T10:35:31.709Z,5000.00
2019-03-20T10:36:31.909Z,4992.00
2019-03-20T10:37:31.699Z,4976.00
2019-03-20T10:38:31.696Z,4904.00
2019-03-20T10:39:31.724Z,4684.00
2019-03-20T10:40:31.729Z,4428.00
2019-03-20T10:41:31.686Z,4356.00
2019-03-20T10:42:31.684Z,4432.00
2019-03-20T10:43:31.673Z,4408.00
2019-03-20T10:44:31.671Z,4544.00
2019-03-20T10:45:31.666Z,4612.00
2019-03-20T10:46:31.663Z,4600.00
2019-03-20T10:47:31.657Z,4524.00
2019-03-20T10:48:31.655Z,4392.00
2019-03-20T10:49:31.664Z,4416.00
2019-03-20T10:50:31.650Z,4352.00
2019-03-20T10:51:31.652Z,4236.00
2019-03-20T10:52:31.639Z,4048.00
2019-03-20T10:53:31.632Z,3820.00
2019-03-20T10:54:31.633Z,3652.00
2019-03-20T10:55:31.625Z,3524.00
2019-03-20T10:56:31.623Z,3500.00
2019-03-20T10:57:31.617Z,3500.00
2019-03-20T10:58:31.613Z,3456.00
2019-03-20T10:59:31.612Z,3448.00
2019-03-20T11:00:31.617Z,3440.00
2019-03-20T11:01:42.088Z,3452.00
2019-03-20T11:02:31.597Z,3556.00
2019-03-20T11:03:31.590Z,3684.00
2019-03-20T11:04:31.611Z,3868.00
2019-03-20T11:05:31.606Z,4068.00
2019-03-20T11:06:31.579Z,4300.00
2019-03-20T11:07:31.572Z,4436.00
2019-03-20T11:08:31.571Z,4488.00
2019-03-20T11:09:31.564Z,4608.00
2019-03-20T11:10:31.565Z,4884.00
2019-03-20T11:11:31.555Z,5248.00
2019-03-20T11:12:31.554Z,5580.00
2019-03-20T11:15:31.549Z,6708.00
2019-03-20T11:16:31.538Z,6860.00
2019-03-20T13:08:06.121Z,1572.00
2019-03-20T13:09:05.200Z,1544.00
2019-03-20T13:10:05.195Z,1500.00
2019-03-20T13:11:05.198Z,1428.00
2019-03-20T13:12:05.174Z,1408.00
2019-03-20T13:13:05.217Z,1424.00
2019-03-20T13:14:05.164Z,1448.00
2019-03-20T13:15:05.176Z,1448.00
2019-03-20T13:16:05.154Z,1464.00
2019-03-20T13:17:05.151Z,1476.00
2019-03-20T13:18:05.144Z,1524.00
2019-03-20T13:19:05.155Z,1592.00
2019-03-20T13:20:05.137Z,1668.00
2019-03-20T13:21:05.134Z,1700.00
2019-03-20T13:22:05.133Z,1744.00
2019-03-20T13:23:05.137Z,1784.00
2019-03-20T13:24:05.131Z,1792.00
2019-03-20T13:25:05.118Z,1784.00
2019-03-20T13:26:05.119Z,1780.00
2019-03-20T13:27:05.111Z,1752.00
2019-03-20T13:28:05.107Z,1728.00
2019-03-20T13:29:05.108Z,1748.00
2019-03-20T13:30:05.098Z,1788.00
2019-03-20T13:31:05.097Z,1812.00
2019-03-20T13:32:05.090Z,1848.00
2019-03-20T13:33:05.088Z,1872.00
2019-03-20T13:34:05.083Z,1916.00
2019-03-20T13:35:05.083Z,1992.00
2019-03-20T13:36:05.077Z,2120.00
2019-03-20T13:37:05.077Z,2236.00
2019-03-20T13:38:05.068Z,2320.00
2019-03-20T13:39:05.067Z,2384.00
2019-03-20T13:40:13.918Z,2436.00
2019-03-20T13:41:05.064Z,2496.00
2019-03-20T13:42:05.054Z,2564.00
2019-03-20T13:43:05.053Z,2612.00
2019-03-20T13:44:05.059Z,2644.00
2019-03-20T13:45:05.056Z,2612.00
2019-03-20T13:46:05.058Z,2492.00
2019-03-20T13:47:05.048Z,2412.00
2019-03-20T13:48:05.035Z,2396.00
2019-03-20T13:49:05.036Z,2416.00
2019-03-20T13:50:05.029Z,2400.00
2019-03-20T13:51:05.028Z,2352.00
2019-03-20T13:52:05.023Z,2308.00
2019-03-20T13:53:05.022Z,2268.00
2019-03-20T13:54:05.018Z,2224.00
2019-03-20T13:55:05.016Z,2188.00
2019-03-20T13:56:05.012Z,2136.00
2019-03-20T13:57:05.010Z,2120.00
2019-03-20T13:58:05.005Z,2108.00
2019-03-20T13:59:05.004Z,2040.00
2019-03-20T14:00:05.015Z,1948.00
2019-03-20T14:01:05.007Z,1836.00
2019-03-20T14:02:04.994Z,1764.00
2019-03-20T14:03:04.992Z,1696.00
2019-03-20T14:04:04.987Z,1628.00
2019-03-20T14:05:04.985Z,1612.00
2019-03-20T14:06:04.984Z,1596.00
2019-03-20T14:07:04.983Z,1588.00
2019-03-20T14:08:04.975Z,1576.00
2019-03-20T14:09:04.974Z,1596.00
2019-03-20T14:10:04.969Z,1608.00
2019-03-20T14:11:05.171Z,1596.00
2019-03-20T14:12:04.963Z,1560.00
2019-03-20T14:13:04.967Z,1516.00
2019-03-20T14:14:04.958Z,1488.00
2019-03-20T14:15:04.957Z,1452.00
2019-03-20T14:16:04.970Z,1412.00
2019-03-20T14:17:04.971Z,1396.00
2019-03-20T14:18:04.947Z,1384.00
2019-03-20T14:19:04.946Z,1368.00
2019-03-20T14:20:04.940Z,1344.00
2019-03-20T14:21:04.956Z,1320.00
2019-03-20T14:22:04.933Z,1292.00
2019-03-20T14:23:04.935Z,1248.00
2019-03-20T14:24:04.928Z,1224.00
2019-03-20T14:25:04.927Z,1192.00
2019-03-20T14:26:04.921Z,1156.00
2019-03-20T14:27:04.937Z,1120.00
2019-03-20T14:28:04.915Z,1084.00
2019-03-20T14:29:04.915Z,1076.00
2019-03-20T14:30:04.909Z,1036.00
2019-03-20T14:31:04.908Z,1020.00
2019-03-20T14:32:04.903Z,1004.00
2019-03-20T14:33:04.901Z,992.00
2019-03-20T14:34:04.895Z,988.00
2019-03-20T14:35:04.895Z,976.00
2019-03-20T14:36:04.891Z,964.00
2019-03-20T14:37:04.887Z,952.00
2019-03-20T14:38:04.882Z,936.00
2019-03-20T14:39:05.106Z,948.00
2019-03-20T14:40:04.881Z,980.00
2019-03-20T14:41:04.877Z,1000.00
2019-03-20T14:42:04.892Z,1000.00
2019-03-20T14:43:05.205Z,996.00
2019-03-20T14:44:04.863Z,988.00
2019-03-20T14:45:04.874Z,980.00
2019-03-20T14:46:04.864Z,976.00
2019-03-20T14:47:04.866Z,980.00
2019-03-20T14:48:04.849Z,968.00
2019-03-20T14:49:04.863Z,944.00
2019-03-20T14:50:04.841Z,928.00
2019-03-20T14:51:04.841Z,920.00
2019-03-20T14:52:04.835Z,924.00
2019-03-20T14:53:04.833Z,928.00
2019-03-20T14:54:04.828Z,936.00
2019-03-20T14:55:04.841Z,936.00
2019-03-20T14:56:04.822Z,952.00
2019-03-20T14:57:04.819Z,1012.00
2019-03-20T14:58:04.818Z,1100.00
2019-03-20T14:59:04.814Z,1312.00
2019-03-20T15:00:04.907Z,1468.00
2019-03-20T15:01:04.810Z,1540.00
2019-03-20T15:02:04.800Z,1560.00
2019-03-20T15:03:04.799Z,1500.00
2019-03-20T15:04:04.794Z,1380.00
2019-03-20T15:05:04.791Z,1308.00
2019-03-20T15:06:04.815Z,1268.00
2019-03-20T15:07:04.789Z,1248.00
2019-03-20T15:08:04.780Z,1248.00
2019-03-20T15:09:04.791Z,1228.00
2019-03-20T15:10:04.774Z,1188.00
2019-03-20T15:11:04.770Z,1160.00
2019-03-20T15:12:04.765Z,1124.00
2019-03-20T15:13:04.775Z,1164.00
2019-03-20T15:14:04.757Z,1200.00
2019-03-20T15:15:04.755Z,1212.00
2019-03-20T15:16:04.750Z,1208.00
2019-03-20T15:17:04.748Z,1192.00
2019-03-20T15:18:04.743Z,1176.00
2019-03-20T15:19:07.012Z,1188.00
2019-03-20T15:20:04.751Z,1212.00
2019-03-20T15:21:04.733Z,1204.00
2019-03-20T15:22:04.727Z,1200.00
2019-03-20T15:23:04.735Z,1188.00
2019-03-20T15:24:04.721Z,1180.00
2019-03-20T15:25:04.731Z,1180.00
2019-03-20T15:26:04.712Z,1192.00
2019-03-20T15:27:04.711Z,1196.00
2019-03-20T15:28:04.706Z,1216.00
2019-03-20T15:29:04.702Z,1224.00
2019-03-20T15:30:04.696Z,1236.00
2019-03-20T15:31:04.695Z,1248.00
2019-03-20T15:32:04.688Z,1256.00
2019-03-20T15:33:04.686Z,1264.00
2019-03-20T15:34:04.685Z,1284.00
2019-03-20T15:35:04.689Z,1296.00
2019-03-20T15:36:04.776Z,1312.00
2019-03-20T15:37:04.678Z,1320.00
2019-03-20T15:38:04.661Z,1328.00
2019-03-20T15:39:04.660Z,1324.00
2019-03-20T15:40:04.659Z,1316.00
2019-03-20T15:41:04.659Z,1296.00
2019-03-20T15:42:04.646Z,1268.00
2019-03-20T15:43:04.653Z,1228.00
2019-03-20T15:44:04.656Z,1192.00
2019-03-20T15:45:04.635Z,1180.00
2019-03-20T15:46:04.629Z,1176.00
2019-03-20T15:47:04.632Z,1176.00
2019-03-20T15:48:04.619Z,1176.00
2019-03-20T15:49:04.616Z,1168.00
2019-03-20T15:50:04.611Z,1152.00
2019-03-20T15:51:04.616Z,1136.00
2019-03-20T15:52:04.602Z,1120.00
2019-03-20T15:53:04.613Z,1112.00
2019-03-20T15:54:04.644Z,1104.00
2019-03-20T15:55:04.591Z,1084.00
2019-03-20T15:56:04.601Z,1064.00
2019-03-20T15:57:04.581Z,1040.00
2019-03-20T15:58:04.599Z,1028.00
2019-03-20T15:59:04.574Z,1016.00
2019-03-20T16:00:04.584Z,1008.00
2019-03-20T16:01:04.569Z,996.00
2019-03-20T16:02:04.557Z,984.00
2019-03-20T16:03:04.569Z,976.00
2019-03-20T16:04:04.563Z,952.00
2019-03-20T16:05:04.559Z,944.00
2019-03-20T16:06:04.546Z,932.00
2019-03-20T16:07:04.541Z,928.00
2019-03-20T16:08:04.538Z,928.00
2019-03-20T16:09:04.532Z,932.00
2019-03-20T16:10:04.527Z,936.00
2019-03-20T16:11:06.762Z,932.00
2019-03-20T16:12:04.515Z,924.00
2019-03-20T16:13:04.516Z,916.00
2019-03-20T16:14:04.514Z,904.00
2019-03-20T16:15:04.507Z,892.00
2019-03-20T16:16:04.501Z,880.00
2019-03-20T16:17:04.496Z,856.00
2019-03-20T16:18:04.488Z,840.00
2019-03-20T16:19:04.486Z,824.00
2019-03-20T16:20:05.473Z,800.00
2019-03-20T16:21:04.489Z,784.00
2019-03-20T16:22:04.484Z,772.00
2019-03-20T16:23:04.502Z,760.00
2019-03-20T16:24:04.477Z,748.00
2019-03-20T16:25:04.460Z,732.00
2019-03-20T16:26:04.456Z,712.00
2019-03-20T16:27:04.457Z,688.00
2019-03-20T16:35:39.957Z,568.00
2019-03-20T16:36:39.955Z,568.00
2019-03-20T16:37:39.953Z,556.00
2019-03-20T16:38:39.950Z,548.00
2019-03-20T16:39:40.477Z,536.00
2019-03-20T16:40:39.941Z,532.00
2019-03-20T16:41:39.939Z,524.00
2019-03-20T16:42:39.936Z,508.00
2019-03-20T16:43:39.940Z,492.00
2019-03-20T16:44:39.928Z,476.00
2019-03-20T16:45:39.916Z,460.00
2019-03-20T16:46:39.913Z,452.00
2019-03-20T16:47:39.908Z,440.00
2019-03-20T16:48:39.905Z,416.00
2019-03-20T16:49:39.897Z,412.00
2019-03-20T16:50:39.899Z,400.00
2019-03-20T16:51:39.890Z,400.00
2019-03-20T16:52:39.889Z,396.00
2019-03-20T16:53:39.883Z,380.00
2019-03-20T16:54:39.879Z,364.00
2019-03-20T16:55:39.873Z,348.00
2019-03-20T16:56:39.872Z,332.00
2019-03-20T16:57:39.865Z,316.00
2019-03-20T16:58:39.862Z,312.00
2019-03-20T16:59:39.856Z,300.00
2019-03-20T17:00:39.855Z,288.00
2019-03-20T17:01:39.852Z,272.00
2019-03-20T17:02:39.847Z,264.00
2019-03-20T17:03:39.839Z,256.00
2019-03-20T17:04:39.838Z,248.00
2019-03-20T17:05:39.834Z,236.00
2019-03-20T17:06:39.829Z,224.00
2019-03-20T17:07:39.825Z,216.00
2019-03-20T17:08:39.826Z,208.00
2019-03-20T17:09:39.814Z,200.00
2019-03-20T17:10:39.867Z,196.00
2019-03-20T17:11:39.812Z,192.00
2019-03-20T17:12:39.805Z,184.00
2019-03-20T17:13:39.799Z,180.00
2019-03-20T17:14:41.727Z,176.00
2019-03-20T17:15:39.791Z,176.00
2019-03-20T17:16:42.722Z,172.00
2019-03-20T17:17:39.782Z,164.00
2019-03-20T17:18:39.781Z,160.00
2019-03-20T17:19:39.818Z,156.00
2019-03-20T17:20:39.772Z,148.00
2019-03-20T17:21:39.765Z,144.00
2019-03-20T17:22:42.153Z,136.00
2019-03-20T17:23:39.757Z,132.00
2019-03-20T17:24:39.755Z,124.00
2019-03-20T17:25:39.748Z,120.00
2019-03-20T17:26:39.747Z,112.00
2019-03-20T17:27:39.740Z,108.00
2019-03-20T17:28:39.741Z,104.00
2019-03-20T17:29:39.731Z,100.00
2019-03-20T17:30:39.728Z,92.00
2019-03-20T17:31:39.723Z,84.00
2019-03-20T17:32:39.720Z,76.00
2019-03-20T17:33:39.713Z,68.00
2019-03-20T17:34:39.711Z,60.00
2019-03-20T17:35:39.705Z,60.00
2019-03-20T17:36:39.702Z,48.00
2019-03-20T17:37:39.696Z,44.00
2019-03-20T17:38:39.693Z,40.00
2019-03-20T17:39:39.688Z,40.00
2019-03-20T17:40:39.887Z,32.00
2019-03-20T17:41:39.677Z,32.00
2019-03-20T17:42:39.678Z,28.00
2019-03-20T17:43:39.707Z,28.00
2019-03-20T17:44:39.669Z,24.00
2019-03-20T17:45:39.660Z,20.00
2019-03-20T17:46:39.660Z,20.00
2019-03-20T17:47:39.655Z,16.00
2019-03-20T17:48:39.651Z,16.00
2019-03-20T17:49:39.645Z,16.00
2019-03-20T17:50:39.645Z,16.00
2019-03-20T17:51:39.636Z,12.00
2019-03-20T17:52:39.634Z,8.00
2019-03-20T17:53:39.627Z,8.00
2019-03-20T17:54:39.625Z,8.00
2019-03-20T17:55:39.619Z,8.00
2019-03-20T17:56:39.617Z,4.00
2019-03-20T17:57:39.611Z,4.00
2019-03-20T17:58:39.609Z,4.00
2019-03-20T17:59:39.602Z,4.00
2019-03-20T18:00:39.600Z,4.00
2019-03-20T18:01:39.594Z,0.00
2019-03-20T18:02:39.593Z,0.00
2019-03-20T18:03:39.597Z,4.00
2019-03-20T18:04:39.595Z,0.00
2019-03-20T18:05:39.592Z,0.00
2019-03-20T18:06:39.577Z,0.00
2019-03-20T18:07:39.571Z,0.00
2019-03-20T18:08:39.570Z,0.00
2019-03-20T18:09:39.559Z,0.00
2019-03-20T18:10:39.567Z,0.00
2019-03-20T18:11:47.101Z,0.00
2019-03-20T18:12:39.553Z,0.00
2019-03-20T18:13:39.543Z,0.00
2019-03-20T18:14:39.541Z,0.00
2019-03-20T18:15:39.541Z,0.00
2019-03-20T18:16:39.541Z,0.00
2019-03-20T18:17:39.582Z,0.00
2019-03-20T18:18:39.525Z,0.00
2019-03-20T18:19:39.519Z,0.00
2019-03-20T18:20:39.517Z,0.00
2019-03-20T18:21:39.810Z,0.00
2019-03-20T18:22:39.509Z,0.00
2019-03-20T19:03:13.953Z,0.00
2019-03-20T19:04:13.949Z,0.00
2019-03-20T19:05:13.944Z,0.00
2019-03-20T19:06:14.539Z,0.00
2019-03-20T19:07:13.935Z,0.00
2019-03-20T19:08:13.964Z,0.00
2019-03-20T19:09:13.955Z,0.00
2019-03-20T19:10:13.923Z,0.00
2019-03-20T19:11:13.921Z,0.00
2019-03-20T19:12:13.913Z,0.00
2019-03-20T19:13:13.912Z,0.00
2019-03-20T19:14:13.917Z,0.00
2019-03-20T19:15:13.898Z,0.00
2019-03-20T19:16:13.903Z,0.00
2019-03-20T19:17:13.904Z,0.00
2019-03-20T19:18:13.895Z,0.00
2019-03-20T19:19:13.880Z,0.00
2019-03-20T19:20:13.886Z,0.00
2019-03-20T19:21:13.890Z,0.00
2019-03-20T19:23:13.866Z,0.00
2019-03-20T19:24:13.863Z,0.00
2019-03-20T19:25:13.854Z,0.00
2019-03-20T19:26:13.848Z,0.00
2019-03-20T19:28:13.840Z,0.00
2019-03-20T19:29:13.838Z,0.00
2019-03-20T19:30:13.832Z,0.00
2019-03-20T19:31:13.825Z,0.00
2019-03-20T19:32:13.822Z,0.00
2019-03-20T19:33:13.816Z,0.00
2019-03-20T19:34:13.814Z,0.00
2019-03-20T19:35:13.808Z,0.00
2019-03-20T19:36:13.805Z,0.00
2019-03-20T19:37:13.800Z,0.00
2019-03-20T19:38:13.796Z,0.00
2019-03-20T19:39:13.792Z,0.00
2019-03-20T19:40:13.792Z,0.00
2019-03-20T19:41:13.780Z,0.00
2019-03-20T19:42:19.950Z,0.00
2019-03-20T19:43:13.772Z,0.00
2019-03-20T19:44:13.776Z,0.00
2019-03-20T19:45:13.765Z,0.00
2019-03-20T19:46:13.761Z,0.00
2019-03-20T19:47:13.758Z,0.00
2019-03-20T19:48:13.907Z,0.00
2019-03-20T19:49:13.746Z,0.00
2019-03-20T19:50:13.744Z,0.00
2019-03-20T19:51:13.737Z,0.00
2019-03-20T19:52:13.734Z,0.00
2019-03-20T20:43:47.900Z,0.00
2019-03-20T20:44:47.899Z,0.00
2019-03-20T20:45:47.892Z,0.00
2019-03-20T20:46:47.890Z,0.00
2019-03-20T20:47:47.883Z,0.00
2019-03-20T20:48:47.884Z,0.00
2019-03-20T20:49:47.876Z,0.00
2019-03-20T20:50:47.873Z,0.00
2019-03-20T20:51:47.866Z,0.00
2019-03-20T20:52:47.862Z,0.00
2019-03-20T20:53:47.855Z,0.00
2019-03-20T20:54:47.856Z,0.00
2019-03-20T20:55:47.846Z,0.00
2019-03-20T20:56:47.844Z,0.00
2019-03-20T20:57:47.839Z,0.00
2019-03-20T20:58:47.839Z,0.00
2019-03-20T20:59:47.828Z,0.00
2019-03-20T21:00:47.829Z,0.00
2019-03-20T21:01:47.820Z,0.00
2019-03-20T21:02:47.823Z,0.00
2019-03-20T21:03:47.811Z,0.00
2019-03-20T21:04:47.808Z,0.00
2019-03-20T21:05:47.802Z,0.00
2019-03-20T21:06:47.801Z,0.00
2019-03-20T21:07:47.799Z,0.00
2019-03-20T21:08:47.801Z,0.00
2019-03-20T21:09:47.799Z,0.00
2019-03-20T21:10:47.783Z,0.00
2019-03-20T21:11:47.775Z,0.00
2019-03-20T21:12:56.083Z,0.00
2019-03-20T21:13:47.776Z,0.00
2019-03-20T21:15:47.764Z,0.00
2019-03-20T21:16:47.754Z,0.00
2019-03-20T21:17:47.751Z,0.00
2019-03-20T21:18:47.746Z,0.00
2019-03-20T21:19:47.757Z,0.00
2019-03-20T21:20:47.762Z,0.00
2019-03-20T21:21:47.735Z,0.00
2019-03-20T21:22:47.728Z,0.00
2019-03-20T21:23:47.728Z,0.00
2019-03-20T21:24:47.723Z,0.00
2019-03-20T21:25:47.718Z,0.00
2019-03-20T21:26:47.712Z,0.00
2019-03-20T21:27:47.707Z,0.00
2019-03-20T21:28:47.701Z,0.00
2019-03-20T21:29:47.699Z,0.00
2019-03-20T21:30:47.692Z,0.00
2019-03-20T21:31:47.689Z,0.00
2019-03-20T21:32:47.683Z,0.00
2019-03-20T21:33:47.686Z,0.00
2019-03-20T21:34:47.675Z,0.00
2019-03-20T21:35:47.672Z,0.00
2019-03-20T21:36:47.971Z,0.00
2019-03-20T21:37:47.663Z,0.00
2019-03-20T21:38:47.658Z,0.00
2019-03-20T21:39:47.654Z,0.00
2019-03-20T21:40:47.647Z,0.00
2019-03-20T21:41:47.645Z,0.00
2019-03-20T21:42:47.639Z,0.00
2019-03-20T21:43:47.636Z,0.00
2019-03-20T21:44:47.630Z,0.00
2019-03-20T21:45:47.627Z,0.00
2019-03-20T21:46:47.621Z,0.00
2019-03-20T21:47:47.619Z,0.00
2019-03-20T21:48:47.611Z,0.00
2019-03-20T21:49:47.611Z,0.00
2019-03-20T21:50:47.602Z,0.00
2019-03-20T21:51:47.601Z,0.00
2019-03-20T21:52:47.593Z,0.00
2019-03-20T21:53:47.590Z,0.00
2019-03-20T21:54:47.584Z,0.00
2019-03-20T21:55:47.583Z,0.00
2019-03-20T21:56:47.574Z,0.00
2019-03-20T21:57:47.573Z,0.00
2019-03-20T21:58:47.566Z,0.00
2019-03-20T21:59:47.564Z,0.00
2019-03-20T22:00:47.559Z,0.00
2019-03-20T22:01:47.555Z,0.00
2019-03-20T22:02:47.549Z,0.00
2019-03-20T22:03:47.551Z,0.00
2019-03-20T22:04:47.540Z,0.00
2019-03-20T22:05:47.538Z,0.00
2019-03-20T22:06:47.832Z,0.00
2019-03-20T22:07:47.530Z,0.00
2019-03-20T22:08:47.523Z,0.00
2019-03-20T22:09:47.522Z,0.00
2019-03-20T22:10:47.520Z,0.00
2019-03-20T22:11:47.513Z,0.00
2019-03-20T22:12:47.507Z,0.00
2019-03-20T22:13:47.505Z,0.00
2019-03-20T22:14:47.503Z,0.00
2019-03-20T22:15:47.498Z,0.00
2019-03-20T22:16:47.490Z,0.00
2019-03-20T22:17:50.974Z,0.00
2019-03-20T22:18:47.483Z,0.00
2019-03-20T22:19:47.481Z,0.00
2019-03-20T22:20:47.475Z,0.00
2019-03-20T22:21:47.473Z,0.00
2019-03-20T22:22:47.467Z,0.00
2019-03-20T22:23:47.464Z,0.00
2019-03-20T22:24:47.459Z,0.00
2019-03-20T22:25:47.457Z,0.00
2019-03-20T22:26:47.451Z,0.00
2019-03-20T22:27:47.449Z,0.00
2019-03-20T22:28:47.443Z,0.00
2019-03-20T22:29:47.442Z,0.00
2019-03-20T22:30:47.436Z,0.00
2019-03-20T22:31:47.435Z,0.00
2019-03-20T22:32:47.427Z,0.00
2019-03-20T22:33:47.428Z,0.00
2019-03-20T22:34:47.421Z,0.00
2019-03-20T22:35:47.418Z,0.00
2019-03-20T22:36:47.714Z,0.00
2019-03-20T22:37:47.412Z,0.00
2019-03-20T22:38:47.405Z,0.00
2019-03-20T22:39:47.402Z,0.00
2019-03-20T22:40:47.397Z,0.00
2019-03-20T22:41:47.395Z,0.00
2019-03-20T22:42:47.389Z,0.00
2019-03-20T22:43:47.387Z,0.00
2019-03-20T22:44:47.381Z,0.00
2019-03-20T22:45:47.379Z,0.00
2019-03-20T22:46:47.375Z,0.00
2019-03-20T22:47:47.370Z,0.00
2019-03-20T22:48:47.367Z,0.00
2019-03-20T22:49:47.363Z,0.00
2019-03-20T22:50:47.357Z,0.00
2019-03-20T22:51:47.355Z,0.00
2019-03-20T22:52:47.348Z,0.00
2019-03-20T22:53:47.351Z,0.00
2019-03-20T22:54:47.341Z,0.00
2019-03-20T22:55:47.339Z,0.00
2019-03-20T22:57:47.328Z,0.00
2019-03-20T22:58:47.332Z,0.00
2019-03-20T22:59:47.319Z,0.00
2019-03-20T23:00:47.317Z,0.00
2019-03-20T23:01:47.312Z,0.00
2019-03-20T23:02:47.309Z,0.00
2019-03-20T23:03:47.305Z,0.00
2019-03-20T23:04:47.300Z,0.00
2019-03-20T23:05:47.295Z,0.00
2019-03-20T23:06:47.593Z,0.00
2019-03-20T23:07:47.285Z,0.00
2019-03-20T23:08:47.283Z,0.00
2019-03-20T23:09:47.277Z,0.00
2019-03-20T23:10:47.275Z,0.00
2019-03-20T23:26:15.895Z,0.00
2019-03-20T23:27:15.878Z,0.00
2019-03-20T23:28:15.868Z,0.00
2019-03-20T23:29:15.867Z,0.00
2019-03-20T23:30:15.862Z,0.00
2019-03-20T23:31:15.858Z,0.00
2019-03-20T23:32:15.851Z,0.00
2019-03-20T23:33:15.850Z,0.00
2019-03-20T23:34:15.842Z,0.00
2019-03-20T23:35:15.840Z,0.00
2019-03-20T23:36:49.046Z,0.00
2019-03-20T23:37:15.833Z,0.00
2019-03-20T23:38:15.830Z,0.00
2019-03-20T23:39:15.821Z,0.00
2019-03-20T23:40:15.820Z,0.00
2019-03-20T23:41:15.813Z,0.00
2019-03-20T23:42:15.809Z,0.00
2019-03-20T23:43:15.803Z,0.00
2019-03-20T23:44:15.802Z,0.00
2019-03-20T23:45:15.796Z,0.00
2019-03-20T23:46:15.791Z,0.00
2019-03-20T23:47:15.785Z,0.00
2019-03-20T23:48:15.782Z,0.00
2019-03-20T23:49:15.775Z,0.00
2019-03-20T23:50:15.774Z,0.00
2019-03-20T23:51:15.768Z,0.00